createdAt,value
2023-04-16T00:02:05.006Z,8.98
2023-04-16T00:04:32.136Z,9.10
2023-04-16T00:06:58.997Z,9.01
2023-04-16T00:09:26.747Z,9.06
2023-04-16T00:11:53.813Z,9.12
2023-04-16T00:14:20.730Z,9.10
2023-04-16T00:16:47.519Z,9.07
2023-04-16T00:19:14.433Z,9.09
2023-04-16T00:21:41.869Z,9.12
2023-04-16T00:24:08.815Z,9.16
2023-04-16T00:26:36.246Z,9.21
2023-04-16T00:29:03.619Z,9.22
2023-04-16T00:31:31.959Z,9.22
2023-04-16T00:33:59.388Z,9.27
2023-04-16T00:36:27.988Z,9.20
2023-04-16T00:38:56.466Z,9.18
2023-04-16T00:41:24.004Z,9.18
2023-04-16T00:43:51.733Z,9.16
2023-04-16T00:46:25.998Z,9.14
2023-04-16T00:48:54.251Z,9.16
2023-04-16T00:51:22.049Z,9.14
2023-04-16T00:53:49.835Z,9.14
2023-04-16T00:56:18.272Z,9.13
2023-04-16T00:58:45.352Z,9.15
2023-04-16T01:01:14.441Z,9.20
2023-04-16T01:03:46.797Z,9.13
2023-04-16T01:06:14.815Z,9.03
2023-04-16T01:08:42.048Z,9.08
2023-04-16T01:11:11.293Z,9.08
2023-04-16T01:13:39.728Z,9.10
2023-04-16T01:16:10.002Z,9.13
2023-04-16T01:18:38.039Z,9.10
2023-04-16T01:21:06.863Z,9.13
2023-04-16T01:23:34.515Z,9.11
2023-04-16T01:26:03.621Z,9.16
2023-04-16T01:28:30.318Z,9.14
2023-04-16T01:30:57.924Z,9.15
2023-04-16T01:33:27.086Z,9.08
2023-04-16T01:35:54.350Z,9.07
2023-04-16T01:38:21.608Z,9.12
2023-04-16T01:40:48.370Z,9.04
2023-04-16T01:43:15.321Z,9.00
2023-04-16T01:45:42.964Z,9.08
2023-04-16T01:48:12.107Z,9.08
2023-04-16T01:50:39.018Z,9.04
2023-04-16T01:53:06.135Z,9.04
2023-04-16T01:55:34.400Z,9.08
2023-04-16T01:58:01.908Z,9.03
2023-04-16T02:00:28.820Z,9.01
2023-04-16T02:02:56.356Z,9.00
2023-04-16T02:05:23.860Z,9.03
2023-04-16T02:07:50.953Z,9.04
2023-04-16T02:10:17.566Z,9.04
2023-04-16T02:12:44.821Z,9.13
2023-04-16T02:15:12.032Z,9.11
2023-04-16T02:17:39.280Z,9.11
2023-04-16T02:20:08.260Z,9.05
2023-04-16T02:22:35.665Z,9.10
2023-04-16T02:25:02.606Z,9.12
2023-04-16T02:27:29.749Z,9.14
2023-04-16T02:29:57.227Z,9.13
2023-04-16T02:32:24.721Z,9.10
2023-04-16T02:34:52.130Z,9.19
2023-04-16T02:37:18.957Z,9.13
2023-04-16T02:39:47.512Z,9.05
2023-04-16T02:42:14.462Z,9.01
2023-04-16T02:44:41.579Z,8.99
2023-04-16T02:47:08.730Z,8.98
2023-04-16T02:49:36.118Z,9.00
2023-04-16T02:52:03.398Z,9.01
2023-04-16T02:54:30.249Z,9.02
2023-04-16T02:56:57.564Z,8.98
2023-04-16T02:59:24.353Z,8.90
2023-04-16T03:01:51.896Z,8.92
2023-04-16T03:04:19.111Z,8.96
2023-04-16T03:06:46.734Z,8.92
2023-04-16T03:09:13.802Z,8.95
2023-04-16T03:11:40.680Z,8.94
2023-04-16T03:14:07.717Z,8.94
2023-04-16T03:16:34.975Z,8.99
2023-04-16T03:19:02.169Z,8.92
2023-04-16T03:21:29.037Z,9.02
2023-04-16T03:23:56.096Z,8.96
2023-04-16T03:26:23.535Z,8.97
2023-04-16T03:28:50.736Z,9.01
2023-04-16T03:31:17.815Z,9.03
2023-04-16T03:33:44.656Z,9.03
2023-04-16T03:36:12.230Z,9.08
2023-04-16T03:38:39.111Z,9.03
2023-04-16T03:41:06.320Z,9.06
2023-04-16T03:43:33.598Z,9.09
2023-04-16T03:46:00.644Z,9.09
2023-04-16T03:48:27.872Z,9.10
2023-04-16T03:50:54.578Z,9.11
2023-04-16T03:53:21.831Z,9.08
2023-04-16T03:55:51.989Z,9.10
2023-04-16T03:58:19.581Z,9.13
2023-04-16T04:00:46.492Z,9.15
2023-04-16T04:03:17.143Z,9.14
2023-04-16T04:05:44.350Z,9.17
2023-04-16T04:08:11.795Z,9.21
2023-04-16T04:10:38.579Z,9.17
2023-04-16T04:13:06.562Z,9.21
2023-04-16T04:15:33.505Z,9.26
2023-04-16T04:18:00.605Z,9.21
2023-04-16T04:20:27.917Z,9.18
2023-04-16T04:22:54.807Z,9.13
2023-04-16T04:25:21.642Z,9.14
2023-04-16T04:27:48.345Z,9.19
2023-04-16T04:30:15.744Z,9.16
2023-04-16T04:32:42.898Z,9.14
2023-04-16T04:35:09.997Z,9.19
2023-04-16T04:37:36.843Z,9.15
2023-04-16T04:40:03.775Z,9.14
2023-04-16T04:42:30.937Z,9.16
2023-04-16T04:44:58.115Z,9.16
2023-04-16T04:47:25.588Z,9.15
2023-04-16T04:49:53.904Z,9.17
2023-04-16T04:52:20.843Z,9.13
2023-04-16T04:54:47.980Z,9.11
2023-04-16T04:57:14.869Z,9.11
2023-04-16T04:59:41.953Z,9.11
2023-04-16T05:02:08.739Z,9.15
2023-04-16T05:04:35.496Z,9.13
2023-04-16T05:07:02.715Z,9.11
2023-04-16T05:09:29.609Z,9.13
2023-04-16T05:11:57.590Z,9.14
2023-04-16T05:14:24.768Z,9.18
2023-04-16T05:16:52.026Z,9.20
2023-04-16T05:19:19.266Z,9.19
2023-04-16T05:21:46.960Z,9.18
2023-04-16T05:24:15.080Z,9.21
2023-04-16T05:26:42.345Z,9.21
2023-04-16T05:29:09.501Z,9.24
2023-04-16T05:31:36.577Z,9.25
2023-04-16T05:34:03.283Z,9.25
2023-04-16T05:36:30.653Z,9.20
2023-04-16T05:38:57.410Z,9.21
2023-04-16T05:41:24.578Z,9.20
2023-04-16T05:43:51.683Z,9.13
2023-04-16T05:46:18.595Z,9.22
2023-04-16T05:48:45.954Z,9.22
2023-04-16T05:51:12.691Z,9.18
2023-04-16T05:53:39.316Z,9.16
2023-04-16T05:56:06.744Z,9.16
2023-04-16T05:58:34.117Z,9.16
2023-04-16T06:01:01.539Z,9.15
2023-04-16T06:03:28.510Z,9.18
2023-04-16T06:05:55.554Z,9.19
2023-04-16T06:08:23.181Z,9.18
2023-04-16T06:10:50.413Z,9.20
2023-04-16T06:13:17.324Z,9.16
2023-04-16T06:15:44.544Z,9.15
2023-04-16T06:18:12.283Z,9.16
2023-04-16T06:20:39.137Z,9.19
2023-04-16T06:23:07.057Z,9.25
2023-04-16T06:25:34.462Z,9.27
2023-04-16T06:28:01.372Z,9.25
2023-04-16T06:30:28.245Z,9.27
2023-04-16T06:32:55.261Z,9.31
2023-04-16T06:35:22.146Z,9.31
2023-04-16T06:37:49.178Z,9.29
2023-04-16T06:40:16.814Z,9.28
2023-04-16T06:42:45.389Z,9.27
2023-04-16T06:45:13.872Z,9.33
2023-04-16T06:47:40.877Z,9.32
2023-04-16T06:50:08.188Z,9.32
2023-04-16T06:52:35.701Z,9.34
2023-04-16T06:55:02.619Z,9.39
2023-04-16T06:57:29.696Z,9.40
2023-04-16T06:59:56.354Z,9.46
2023-04-16T07:02:24.337Z,9.45
2023-04-16T07:04:52.500Z,9.44
2023-04-16T07:07:19.497Z,9.43
2023-04-16T07:09:46.753Z,9.54
2023-04-16T07:12:13.795Z,9.58
2023-04-16T07:14:41.698Z,9.60
2023-04-16T07:17:08.702Z,9.62
2023-04-16T07:19:36.062Z,9.69
2023-04-16T07:22:03.682Z,9.77
2023-04-16T07:24:31.208Z,9.76
2023-04-16T07:26:58.885Z,9.80
2023-04-16T07:29:27.701Z,9.80
2023-04-16T07:31:55.053Z,9.83
2023-04-16T07:34:21.942Z,9.88
2023-04-16T07:36:48.861Z,10.02
2023-04-16T07:39:15.592Z,9.96
2023-04-16T07:41:43.426Z,9.92
2023-04-16T07:44:10.466Z,9.94
2023-04-16T07:46:46.273Z,9.98
2023-04-16T07:49:14.505Z,10.13
2023-04-16T07:51:42.067Z,10.26
2023-04-16T07:54:09.918Z,10.36
2023-04-16T07:56:36.950Z,10.44
2023-04-16T07:59:14.898Z,10.51
2023-04-16T08:01:48.878Z,10.59
2023-04-16T08:04:17.428Z,10.67
2023-04-16T08:06:44.941Z,10.70
2023-04-16T08:09:12.426Z,10.69
2023-04-16T08:11:39.766Z,10.69
2023-04-16T08:14:07.509Z,10.77
2023-04-16T08:16:34.420Z,10.90
2023-04-16T08:19:01.603Z,10.98
2023-04-16T08:21:28.608Z,10.85
2023-04-16T08:23:56.015Z,10.76
2023-04-16T08:26:22.996Z,10.72
2023-04-16T08:28:50.863Z,10.75
2023-04-16T08:31:17.694Z,10.81
2023-04-16T08:33:44.934Z,10.73
2023-04-16T08:36:11.745Z,10.80
2023-04-16T08:38:39.212Z,10.96
2023-04-16T08:41:09.255Z,11.11
2023-04-16T08:43:39.229Z,11.31
2023-04-16T08:46:07.341Z,11.43
2023-04-16T08:48:35.303Z,11.52
2023-04-16T08:51:02.530Z,11.45
2023-04-16T08:53:48.551Z,11.61
2023-04-16T08:56:18.475Z,11.80
2023-04-16T08:58:48.864Z,11.77
2023-04-16T09:01:18.008Z,11.78
2023-04-16T09:03:48.464Z,11.81
2023-04-16T09:06:16.392Z,11.81
2023-04-16T09:08:46.884Z,11.98
2023-04-16T09:11:14.368Z,12.06
2023-04-16T09:13:41.151Z,12.04
2023-04-16T09:16:09.478Z,12.12
2023-04-16T09:18:36.445Z,12.07
2023-04-16T09:21:04.663Z,12.16
2023-04-16T09:23:31.724Z,12.28
2023-04-16T09:25:59.680Z,12.44
2023-04-16T09:28:59.051Z,12.45
2023-04-16T09:31:27.591Z,12.48
2023-04-16T09:34:02.834Z,12.45
2023-04-16T09:36:32.600Z,12.36
2023-04-16T09:39:01.186Z,12.50
2023-04-16T09:41:33.032Z,12.64
2023-04-16T09:44:04.090Z,12.57
2023-04-16T09:46:34.432Z,12.70
2023-04-16T09:49:14.951Z,12.83
2023-04-16T09:51:49.752Z,12.93
2023-04-16T09:54:22.961Z,13.16
2023-04-16T09:56:50.511Z,13.39
2023-04-16T09:59:24.254Z,13.61
2023-04-16T10:02:12.277Z,13.69
2023-04-16T10:04:49.561Z,13.77
2023-04-16T10:07:18.600Z,13.85
2023-04-16T10:09:48.438Z,13.76
2023-04-16T10:12:16.525Z,13.75
2023-04-16T10:14:44.023Z,13.84
2023-04-16T10:17:11.924Z,13.68
2023-04-16T10:19:39.471Z,13.63
2023-04-16T10:22:06.929Z,13.65
2023-04-16T10:24:34.981Z,13.84
2023-04-16T10:27:02.623Z,13.85
2023-04-16T10:29:31.220Z,13.94
2023-04-16T10:31:58.820Z,14.10
2023-04-16T10:34:27.054Z,14.23
2023-04-16T10:36:54.910Z,14.01
2023-04-16T10:39:27.811Z,14.06
2023-04-16T10:42:12.474Z,14.15
2023-04-16T10:44:43.457Z,13.99
2023-04-16T10:47:13.486Z,14.07
2023-04-16T10:49:41.187Z,14.20
2023-04-16T10:52:13.634Z,14.11
2023-04-16T10:54:41.349Z,14.25
2023-04-16T10:57:10.438Z,14.28
2023-04-16T10:59:39.716Z,14.34
2023-04-16T11:02:14.391Z,14.44
2023-04-16T11:04:49.683Z,14.40
2023-04-16T11:07:21.784Z,14.55
2023-04-16T11:10:04.246Z,14.63
2023-04-16T11:12:38.463Z,14.61
2023-04-16T11:15:10.672Z,14.54
2023-04-16T11:17:46.702Z,14.43
2023-04-16T11:20:20.117Z,14.26
2023-04-16T11:22:53.061Z,14.27
2023-04-16T11:25:27.222Z,14.50
2023-04-16T11:27:54.841Z,14.40
2023-04-16T11:30:34.046Z,14.55
2023-04-16T11:33:11.667Z,14.65
2023-04-16T11:35:39.890Z,14.82
2023-04-16T11:38:07.666Z,14.99
2023-04-16T11:40:35.906Z,15.02
2023-04-16T11:43:17.144Z,15.12
2023-04-16T11:46:10.331Z,15.27
2023-04-16T11:48:51.051Z,15.19
2023-04-16T11:51:19.613Z,15.29
2023-04-16T11:53:54.136Z,15.29
2023-04-16T11:56:32.168Z,15.49
2023-04-16T11:59:17.648Z,15.77
2023-04-16T12:01:49.526Z,15.93
2023-04-16T12:04:19.675Z,16.19
2023-04-16T12:07:12.503Z,16.42
2023-04-16T12:09:43.997Z,16.46
2023-04-16T12:12:32.050Z,16.39
2023-04-16T12:15:00.316Z,16.07
2023-04-16T12:17:27.466Z,15.78
2023-04-16T12:19:59.637Z,15.51
2023-04-16T12:22:37.585Z,15.47
2023-04-16T12:25:07.566Z,15.58
2023-04-16T12:27:48.008Z,15.60
2023-04-16T12:30:17.695Z,15.69
2023-04-16T12:32:47.300Z,15.58
2023-04-16T12:35:31.983Z,15.34
2023-04-16T12:37:59.697Z,15.10
2023-04-16T12:40:27.460Z,14.96
2023-04-16T12:42:55.134Z,14.87
2023-04-16T12:45:22.827Z,14.85
2023-04-16T12:47:50.751Z,14.85
2023-04-16T12:50:18.731Z,14.67
2023-04-16T12:52:46.207Z,14.76
2023-04-16T12:55:14.236Z,14.96
2023-04-16T12:57:41.463Z,15.08
2023-04-16T13:00:12.618Z,15.15
2023-04-16T13:02:40.011Z,15.22
2023-04-16T13:05:08.872Z,15.38
2023-04-16T13:07:36.239Z,15.43
2023-04-16T13:10:02.939Z,15.44
2023-04-16T13:12:32.629Z,15.38
2023-04-16T13:14:59.329Z,15.12
2023-04-16T13:17:26.280Z,14.93
2023-04-16T13:19:52.970Z,14.64
2023-04-16T13:22:19.718Z,14.49
2023-04-16T13:24:47.216Z,14.42
2023-04-16T13:27:16.051Z,14.51
2023-04-16T13:29:42.887Z,14.55
2023-04-16T13:32:09.994Z,14.66
2023-04-16T13:34:37.689Z,14.65
2023-04-16T13:37:04.552Z,14.77
2023-04-16T13:39:31.724Z,14.85
2023-04-16T13:41:58.376Z,14.93
2023-04-16T13:44:25.994Z,15.08
2023-04-16T13:46:53.226Z,15.20
2023-04-16T13:49:20.283Z,15.25
2023-04-16T13:51:46.997Z,15.47
2023-04-16T13:54:13.813Z,15.44
2023-04-16T13:56:41.027Z,15.47
2023-04-16T13:59:08.478Z,15.49
2023-04-16T14:01:35.823Z,15.43
2023-04-16T14:04:06.798Z,15.48
2023-04-16T14:06:34.887Z,15.23
2023-04-16T14:09:02.054Z,15.06
2023-04-16T14:11:28.922Z,14.98
2023-04-16T14:13:56.154Z,15.07
2023-04-16T14:16:23.361Z,15.14
2023-04-16T14:18:51.895Z,15.03
2023-04-16T14:21:18.999Z,14.90
2023-04-16T14:23:45.789Z,14.94
2023-04-16T14:26:13.144Z,14.96
2023-04-16T14:28:41.095Z,14.89
2023-04-16T14:31:08.516Z,14.97
2023-04-16T14:33:35.443Z,15.08
2023-04-16T14:36:03.427Z,15.09
2023-04-16T14:38:31.374Z,15.09
2023-04-16T14:41:00.202Z,15.04
2023-04-16T14:43:27.461Z,15.12
2023-04-16T14:45:54.902Z,15.19
2023-04-16T14:48:22.174Z,15.27
2023-04-16T14:50:49.027Z,15.28
2023-04-16T14:53:16.357Z,15.33
2023-04-16T14:55:43.345Z,15.30
2023-04-16T14:58:10.859Z,15.24
2023-04-16T15:00:38.556Z,15.17
2023-04-16T15:03:06.176Z,15.14
2023-04-16T15:05:33.005Z,15.13
2023-04-16T15:08:00.822Z,15.14
2023-04-16T15:10:28.412Z,15.17
2023-04-16T15:12:55.306Z,15.34
2023-04-16T15:15:22.511Z,16.01
2023-04-16T15:17:50.997Z,17.10
2023-04-16T15:20:19.501Z,18.22
2023-04-16T15:22:46.432Z,19.18
2023-04-16T15:25:13.289Z,19.95
2023-04-16T15:27:40.336Z,20.18
2023-04-16T15:30:08.147Z,19.67
2023-04-16T15:32:35.255Z,19.19
2023-04-16T15:35:03.056Z,18.62
2023-04-16T15:37:30.893Z,18.11
2023-04-16T15:39:58.294Z,17.80
2023-04-16T15:42:25.310Z,17.36
2023-04-16T15:44:52.365Z,17.20
2023-04-16T15:47:19.490Z,16.98
2023-04-16T15:49:46.348Z,16.92
2023-04-16T15:52:13.257Z,16.79
2023-04-16T15:54:40.860Z,16.58
2023-04-16T15:57:08.831Z,16.39
2023-04-16T15:59:35.925Z,16.00
2023-04-16T16:02:03.004Z,15.71
2023-04-16T16:04:30.418Z,15.25
2023-04-16T16:06:57.804Z,14.88
2023-04-16T16:09:27.943Z,14.43
2023-04-16T16:11:55.855Z,13.98
2023-04-16T16:14:22.900Z,13.88
2023-04-16T16:16:51.281Z,13.62
2023-04-16T16:19:18.693Z,13.59
2023-04-16T16:21:45.874Z,13.52
2023-04-16T16:24:12.826Z,13.37
2023-04-16T16:26:39.980Z,13.31
2023-04-16T16:29:07.182Z,13.19
2023-04-16T16:31:34.229Z,13.06
2023-04-16T16:34:01.956Z,13.01
2023-04-16T16:36:29.760Z,13.05
2023-04-16T16:38:57.021Z,13.07
2023-04-16T16:41:24.070Z,13.08
2023-04-16T16:43:51.419Z,13.02
2023-04-16T16:46:18.570Z,12.99
2023-04-16T16:48:45.749Z,12.96
2023-04-16T16:51:12.722Z,12.93
2023-04-16T16:53:39.427Z,12.92
2023-04-16T16:56:06.702Z,12.88
2023-04-16T16:58:33.495Z,12.89
2023-04-16T17:01:00.699Z,12.85
2023-04-16T17:03:27.758Z,12.91
2023-04-16T17:05:54.926Z,12.90
2023-04-16T17:08:21.752Z,12.96
2023-04-16T17:10:48.619Z,12.94
2023-04-16T17:13:21.361Z,12.92
2023-04-16T17:15:48.501Z,12.86
2023-04-16T17:18:15.521Z,12.90
2023-04-16T17:20:42.550Z,12.86
2023-04-16T17:23:09.864Z,12.85
2023-04-16T17:25:37.091Z,12.84
2023-04-16T17:28:04.970Z,12.88
2023-04-16T17:30:32.324Z,12.86
2023-04-16T17:32:59.064Z,12.92
2023-04-16T17:35:26.281Z,12.92
2023-04-16T17:37:53.180Z,12.93
2023-04-16T17:40:20.491Z,12.94
2023-04-16T17:42:48.736Z,12.88
2023-04-16T17:45:16.187Z,12.87
2023-04-16T17:47:46.719Z,12.86
2023-04-16T17:50:13.876Z,12.87
2023-04-16T17:52:40.713Z,12.88
2023-04-16T17:55:07.760Z,12.91
2023-04-16T17:57:34.951Z,12.85
2023-04-16T18:00:01.779Z,12.91
2023-04-16T18:02:28.547Z,12.84
2023-04-16T18:04:56.185Z,12.81
2023-04-16T18:07:23.453Z,12.71
2023-04-16T18:09:50.915Z,12.74
2023-04-16T18:12:17.993Z,12.75
2023-04-16T18:14:45.328Z,12.72
2023-04-16T18:17:13.042Z,12.70
2023-04-16T18:19:44.499Z,12.67
2023-04-16T18:22:13.232Z,12.61
2023-04-16T18:24:40.753Z,12.54
2023-04-16T18:27:07.383Z,12.51
2023-04-16T18:29:34.665Z,12.50
2023-04-16T18:32:04.426Z,12.46
2023-04-16T18:34:32.304Z,12.44
2023-04-16T18:36:58.940Z,12.42
2023-04-16T18:39:26.065Z,12.38
2023-04-16T18:41:53.154Z,12.33
2023-04-16T18:44:20.774Z,12.27
2023-04-16T18:46:48.412Z,12.26
2023-04-16T18:49:15.133Z,12.25
2023-04-16T18:51:42.352Z,12.26
2023-04-16T18:54:09.539Z,12.17
2023-04-16T18:56:36.980Z,12.15
2023-04-16T18:59:04.132Z,12.06
2023-04-16T19:01:31.234Z,12.12
2023-04-16T19:03:58.793Z,12.01
2023-04-16T19:06:27.845Z,12.03
2023-04-16T19:08:54.989Z,11.95
2023-04-16T19:11:21.667Z,12.00
2023-04-16T19:13:48.476Z,12.01
2023-04-16T19:16:15.831Z,11.96
2023-04-16T19:18:42.760Z,11.92
2023-04-16T19:21:10.952Z,11.94
2023-04-16T19:23:38.358Z,11.92
2023-04-16T19:26:05.662Z,11.90
2023-04-16T19:28:48.446Z,11.89
2023-04-16T19:31:18.940Z,11.88
2023-04-16T19:33:46.054Z,11.94
2023-04-16T19:36:12.884Z,11.84
2023-04-16T19:38:39.665Z,11.83
2023-04-16T19:41:06.467Z,11.77
2023-04-16T19:43:33.641Z,11.81
2023-04-16T19:46:01.174Z,11.81
2023-04-16T19:48:28.725Z,11.79
2023-04-16T19:50:55.697Z,11.78
2023-04-16T19:53:24.214Z,11.79
2023-04-16T19:55:51.827Z,11.78
2023-04-16T19:58:18.697Z,11.80
2023-04-16T20:00:47.209Z,11.79
2023-04-16T20:03:14.261Z,11.78
2023-04-16T20:05:41.302Z,11.78
2023-04-16T20:08:08.695Z,11.79
2023-04-16T20:10:37.949Z,11.80
2023-04-16T20:13:06.609Z,11.82
2023-04-16T20:15:33.241Z,11.82
2023-04-16T20:18:00.433Z,11.82
2023-04-16T20:20:27.651Z,11.80
2023-04-16T20:22:54.670Z,11.77
2023-04-16T20:25:22.529Z,11.77
2023-04-16T20:27:49.199Z,11.74
2023-04-16T20:30:16.385Z,11.71
2023-04-16T20:32:43.331Z,11.73
2023-04-16T20:35:11.698Z,11.75
2023-04-16T20:37:42.237Z,11.72
2023-04-16T20:40:14.988Z,11.64
2023-04-16T20:42:46.123Z,11.58
2023-04-16T20:45:14.402Z,11.50
2023-04-16T20:47:43.389Z,11.45
2023-04-16T20:50:11.306Z,11.39
2023-04-16T20:52:38.666Z,11.36
2023-04-16T20:55:08.047Z,11.32
2023-04-16T20:57:35.318Z,11.30
2023-04-16T21:00:05.759Z,11.27
2023-04-16T21:02:33.298Z,11.25
2023-04-16T21:05:00.876Z,11.29
2023-04-16T21:07:27.806Z,11.26
2023-04-16T21:09:54.844Z,11.20
2023-04-16T21:12:23.308Z,11.21
2023-04-16T21:14:50.504Z,11.14
2023-04-16T21:17:17.322Z,11.09
2023-04-16T21:19:44.422Z,11.16
2023-04-16T21:22:11.338Z,11.07
2023-04-16T21:24:38.210Z,11.09
2023-04-16T21:27:05.491Z,11.05
2023-04-16T21:29:32.727Z,11.05
2023-04-16T21:31:59.844Z,10.98
2023-04-16T21:34:26.750Z,11.01
2023-04-16T21:36:53.787Z,10.98
2023-04-16T21:39:21.781Z,11.01
2023-04-16T21:41:49.141Z,10.96
2023-04-16T21:44:16.287Z,10.88
2023-04-16T21:46:43.173Z,10.96
2023-04-16T21:49:10.654Z,10.91
2023-04-16T21:51:40.038Z,10.89
2023-04-16T21:54:07.394Z,10.85
2023-04-16T21:56:34.422Z,10.83
2023-04-16T21:59:01.748Z,10.82
2023-04-16T22:01:28.642Z,10.80
2023-04-16T22:03:56.130Z,10.80
2023-04-16T22:06:23.665Z,10.77
2023-04-16T22:08:50.888Z,10.76
2023-04-16T22:11:17.795Z,10.75
2023-04-16T22:13:46.405Z,10.77
2023-04-16T22:16:13.555Z,10.74
2023-04-16T22:18:41.257Z,10.71
2023-04-16T22:21:08.380Z,10.70
2023-04-16T22:23:35.351Z,10.68
2023-04-16T22:26:02.971Z,10.69
2023-04-16T22:28:29.927Z,10.69
2023-04-16T22:30:56.967Z,10.64
2023-04-16T22:33:23.778Z,10.63
2023-04-16T22:35:50.514Z,10.66
2023-04-16T22:38:17.364Z,10.68
2023-04-16T22:40:47.267Z,10.70
2023-04-16T22:43:14.023Z,10.74
2023-04-16T22:45:41.147Z,10.71
2023-04-16T22:48:09.660Z,10.71
2023-04-16T22:50:36.480Z,10.72
2023-04-16T22:53:03.906Z,10.74
2023-04-16T22:55:30.635Z,10.70
2023-04-16T22:57:57.873Z,10.69
2023-04-16T23:00:25.012Z,10.72
2023-04-16T23:02:52.415Z,10.72
2023-04-16T23:05:19.844Z,10.74
2023-04-16T23:07:46.793Z,10.77
2023-04-16T23:10:13.681Z,10.73
2023-04-16T23:12:41.189Z,10.70
2023-04-16T23:15:08.819Z,10.66
2023-04-16T23:17:36.021Z,10.70
2023-04-16T23:20:07.370Z,10.73
2023-04-16T23:22:34.105Z,10.79
2023-04-16T23:25:00.998Z,10.72
2023-04-16T23:27:28.092Z,10.72
2023-04-16T23:29:55.057Z,10.71
2023-04-16T23:32:22.195Z,10.69
2023-04-16T23:34:49.465Z,10.67
2023-04-16T23:37:16.552Z,10.68
2023-04-16T23:39:43.668Z,10.69
2023-04-16T23:42:11.295Z,10.71
2023-04-16T23:44:38.728Z,10.71
2023-04-16T23:47:06.007Z,10.70
2023-04-16T23:49:33.207Z,10.71
2023-04-16T23:52:00.260Z,10.74
2023-04-16T23:54:27.104Z,10.72
2023-04-16T23:56:53.868Z,10.73
2023-04-16T23:59:20.838Z,10.74
